Time;durP1;ratioP1;P1;durP2;ratioP2;P2;SDS_P1;SDS_P2;PMS_P1;PMS_P2;Temp;Humidity;BMP_temperature;BMP_pressure;BME280_temperature;BME280_humidity;BME280_pressure;Samples;Min_cycle;Max_cycle;Signal;HPM_P1;HPM_P2
2023/06/17 00:02:33;;;;;;;;;;;;;;;17.54;100.00;98466.12;135677;1278;22599;-71
2023/06/17 00:05:39;;;;;;;;;;;;;;;17.52;100.00;98463.71;135678;1278;22507;-69
2023/06/17 00:08:41;;;;;;;;;;;;;;;17.52;100.00;98465.45;135732;1278;22512;-72
2023/06/17 00:11:44;;;;;;;;;;;;;;;17.55;100.00;98465.92;135704;1278;22498;-70
2023/06/17 00:14:47;;;;;;;;;;;;;;;17.55;100.00;98462.73;135677;1278;22528;-71
2023/06/17 00:17:50;;;;;;;;;;;;;;;17.54;100.00;98456.46;135692;1278;22535;-64
2023/06/17 00:20:52;;;;;;;;;;;;;;;17.56;100.00;98450.93;135718;1278;22523;-65
2023/06/17 00:23:55;;;;;;;;;;;;;;;17.53;100.00;98451.45;135695;1278;22613;-71
2023/06/17 00:26:57;;;;;;;;;;;;;;;17.46;100.00;98451.36;135726;1278;22507;-70
2023/06/17 00:30:00;;;;;;;;;;;;;;;17.45;100.00;98452.71;135685;1278;24242;-70
2023/06/17 00:33:03;;;;;;;;;;;;;;;17.47;100.00;98458.16;135673;1278;22514;-71
2023/06/17 00:36:05;;;;;;;;;;;;;;;17.37;100.00;98455.39;135733;1278;22511;-71
2023/06/17 00:39:07;;;;;;;;;;;;;;;17.34;100.00;98452.65;135726;1278;22521;-71
2023/06/17 00:42:10;;;;;;;;;;;;;;;17.35;100.00;98456.84;135703;1265;24406;-71
2023/06/17 00:45:12;;;;;;;;;;;;;;;17.23;100.00;98457.76;135678;1278;22496;-72
2023/06/17 00:48:15;;;;;;;;;;;;;;;17.19;100.00;98456.55;135652;1260;22517;-69
2023/06/17 00:51:17;;;;;;;;;;;;;;;17.04;100.00;98448.93;135721;1278;22496;-68
2023/06/17 00:54:20;;;;;;;;;;;;;;;16.95;100.00;98446.19;135706;1278;24206;-69
2023/06/17 00:57:23;;;;;;;;;;;;;;;16.92;100.00;98444.05;135683;1278;22511;-68
2023/06/17 01:00:25;;;;;;;;;;;;;;;16.86;100.00;98454.31;135677;1278;22542;-69
2023/06/17 01:03:29;;;;;;;;;;;;;;;16.80;100.00;98453.94;135672;1278;23237;-69
2023/06/17 01:06:33;;;;;;;;;;;;;;;16.75;100.00;98449.27;135740;1263;22508;-69
2023/06/17 01:09:36;;;;;;;;;;;;;;;16.74;100.00;98446.51;135727;1278;22507;-70
2023/06/17 01:12:38;;;;;;;;;;;;;;;16.73;100.00;98452.81;135708;1278;25250;-67
2023/06/17 01:15:40;;;;;;;;;;;;;;;16.64;100.00;98450.09;135620;1278;22512;-64
2023/06/17 01:18:43;;;;;;;;;;;;;;;16.63;100.00;98443.32;135764;1278;22512;-68
2023/06/17 01:21:48;;;;;;;;;;;;;;;16.60;100.00;98440.79;135538;1278;22518;-64
2023/06/17 01:24:51;;;;;;;;;;;;;;;16.55;100.00;98443.02;135727;1278;22507;-66
2023/06/17 01:27:54;;;;;;;;;;;;;;;16.54;100.00;98440.56;135767;1278;22564;-71
2023/06/17 01:30:56;;;;;;;;;;;;;;;16.47;100.00;98438.96;135692;1260;24225;-64
2023/06/17 01:33:59;;;;;;;;;;;;;;;16.42;100.00;98439.44;135728;1278;22531;-68
2023/06/17 01:37:01;;;;;;;;;;;;;;;16.33;100.00;98439.38;135677;1278;22550;-69
2023/06/17 01:40:04;;;;;;;;;;;;;;;16.22;100.00;98441.05;135492;1278;22511;-65
2023/06/17 01:43:06;;;;;;;;;;;;;;;16.02;100.00;98438.60;135723;1278;22570;-70
2023/06/17 01:46:08;;;;;;;;;;;;;;;15.92;100.00;98442.11;135723;1278;24238;-69
2023/06/17 01:49:11;;;;;;;;;;;;;;;15.78;100.00;98442.11;135732;1278;22553;-71
2023/06/17 01:52:13;;;;;;;;;;;;;;;15.68;100.00;98441.58;135693;1278;22494;-71
2023/06/17 01:55:16;;;;;;;;;;;;;;;15.63;100.00;98444.66;135691;1278;23882;-67
2023/06/17 01:58:18;;;;;;;;;;;;;;;15.58;100.00;98446.86;135764;1278;24375;-66
2023/06/17 02:01:20;;;;;;;;;;;;;;;15.38;100.00;98449.14;135723;1259;22544;-68
2023/06/17 02:04:23;;;;;;;;;;;;;;;15.27;100.00;98450.91;135729;1278;22503;-62
2023/06/17 02:07:25;;;;;;;;;;;;;;;15.11;100.00;98448.84;135741;1278;22543;-65
2023/06/17 02:10:28;;;;;;;;;;;;;;;14.94;100.00;98446.33;135703;1278;22515;-63
2023/06/17 02:13:30;;;;;;;;;;;;;;;14.91;100.00;98454.20;135431;1278;22731;-66
2023/06/17 02:16:32;;;;;;;;;;;;;;;14.84;100.00;98454.19;135764;1278;22527;-69
2023/06/17 02:19:35;;;;;;;;;;;;;;;14.76;100.00;98457.79;135768;1278;22510;-68
2023/06/17 02:22:37;;;;;;;;;;;;;;;14.71;100.00;98457.77;135512;1278;22523;-66
2023/06/17 02:25:40;;;;;;;;;;;;;;;14.69;100.00;98459.55;135725;1276;22974;-68
2023/06/17 02:28:43;;;;;;;;;;;;;;;14.60;100.00;98456.26;135741;1278;22500;-64
2023/06/17 02:31:45;;;;;;;;;;;;;;;14.52;100.00;98459.48;135757;1278;26685;-63
2023/06/17 02:34:49;;;;;;;;;;;;;;;14.50;100.00;98454.71;135639;1278;22512;-66
2023/06/17 02:37:51;;;;;;;;;;;;;;;14.41;100.00;98454.66;135780;1278;22507;-68
2023/06/17 02:40:54;;;;;;;;;;;;;;;14.42;100.00;98455.21;135798;1259;22515;-64
2023/06/17 02:43:57;;;;;;;;;;;;;;;14.45;100.00;98454.32;135757;1267;22511;-64
2023/06/17 02:46:59;;;;;;;;;;;;;;;14.41;100.00;98456.40;135744;1278;22612;-67
2023/06/17 02:50:01;;;;;;;;;;;;;;;14.38;100.00;98458.70;135723;1278;22517;-67
2023/06/17 02:53:04;;;;;;;;;;;;;;;14.49;100.00;98467.17;135646;1278;25389;-69
2023/06/17 02:56:07;;;;;;;;;;;;;;;14.54;100.00;98464.13;135734;1278;22561;-68
2023/06/17 02:59:09;;;;;;;;;;;;;;;14.50;100.00;98466.94;135754;1278;22518;-67
2023/06/17 03:02:12;;;;;;;;;;;;;;;14.45;100.00;98467.70;135792;1254;22497;-64
2023/06/17 03:05:14;;;;;;;;;;;;;;;14.63;100.00;98463.94;135768;1278;22529;-71
2023/06/17 03:08:18;;;;;;;;;;;;;;;14.65;100.00;98463.02;135791;1278;22511;-64
2023/06/17 03:11:20;;;;;;;;;;;;;;;14.54;100.00;98469.13;135743;1278;22539;-71
2023/06/17 03:14:22;;;;;;;;;;;;;;;14.53;100.00;98468.23;135567;1278;22570;-63
2023/06/17 03:17:25;;;;;;;;;;;;;;;14.64;100.00;98464.34;135755;1278;22549;-69
2023/06/17 03:20:28;;;;;;;;;;;;;;;14.57;100.00;98459.80;135780;1261;22515;-68
2023/06/17 03:23:30;;;;;;;;;;;;;;;14.54;100.00;98456.50;135708;1278;22625;-67
2023/06/17 03:26:33;;;;;;;;;;;;;;;14.60;100.00;98455.19;135617;1278;24224;-66
2023/06/17 03:29:36;;;;;;;;;;;;;;;14.60;100.00;98456.10;135782;1278;22547;-68
2023/06/17 03:32:38;;;;;;;;;;;;;;;14.60;100.00;98459.88;135803;1278;22517;-65
2023/06/17 03:35:41;;;;;;;;;;;;;;;14.71;100.00;98463.61;135771;1278;24408;-65
2023/06/17 03:38:43;;;;;;;;;;;;;;;14.88;100.00;98464.16;135754;1278;22519;-63
2023/06/17 03:41:45;;;;;;;;;;;;;;;14.94;100.00;98462.79;135722;1278;22540;-66
2023/06/17 03:44:48;;;;;;;;;;;;;;;14.92;100.00;98461.33;135447;1278;22542;-63
2023/06/17 03:47:50;;;;;;;;;;;;;;;14.98;100.00;98460.86;135455;1278;22510;-69
2023/06/17 03:50:53;;;;;;;;;;;;;;;15.10;100.00;98459.99;135770;1278;22524;-67
2023/06/17 03:53:55;;;;;;;;;;;;;;;15.24;100.00;98456.51;135757;1278;22531;-69
2023/06/17 03:56:58;;;;;;;;;;;;;;;15.33;100.00;98457.34;135754;1278;22520;-68
2023/06/17 04:00:00;;;;;;;;;;;;;;;15.43;100.00;98461.90;135763;1278;22577;-64
2023/06/17 04:03:03;;;;;;;;;;;;;;;15.44;100.00;98464.13;135770;1272;22514;-67
2023/06/17 04:06:05;;;;;;;;;;;;;;;15.46;100.00;98459.91;135711;1278;22501;-66
2023/06/17 04:09:08;;;;;;;;;;;;;;;15.38;100.00;98459.36;135772;1278;22596;-69
2023/06/17 04:12:10;;;;;;;;;;;;;;;15.26;100.00;98453.35;135734;1278;22508;-69
2023/06/17 04:15:12;;;;;;;;;;;;;;;15.18;100.00;98459.83;135682;1278;22510;-68
2023/06/17 04:18:15;;;;;;;;;;;;;;;15.22;100.00;98462.09;135772;1278;22557;-70
2023/06/17 04:21:17;;;;;;;;;;;;;;;15.26;100.00;98456.65;135787;1278;22504;-68
2023/06/17 04:24:20;;;;;;;;;;;;;;;15.32;100.00;98460.58;135755;1278;22515;-66
2023/06/17 04:27:22;;;;;;;;;;;;;;;15.29;100.00;98461.16;135722;1278;22522;-66
2023/06/17 04:30:25;;;;;;;;;;;;;;;15.34;100.00;98459.89;135781;1278;22517;-64
2023/06/17 04:33:30;;;;;;;;;;;;;;;15.51;100.00;98465.99;135768;1278;22521;-67
2023/06/17 04:36:33;;;;;;;;;;;;;;;15.59;100.00;98470.06;135748;1278;24198;-64
2023/06/17 04:39:35;;;;;;;;;;;;;;;15.76;100.00;98470.98;135762;1260;22512;-67
2023/06/17 04:42:40;;;;;;;;;;;;;;;16.00;100.00;98472.83;135753;1278;22522;-65
2023/06/17 04:45:42;;;;;;;;;;;;;;;16.28;100.00;98476.02;135768;1278;24182;-65
2023/06/17 04:48:45;;;;;;;;;;;;;;;16.46;100.00;98484.08;135750;1278;22647;-71
2023/06/17 04:51:48;;;;;;;;;;;;;;;16.48;100.00;98481.03;135739;1278;22511;-67
2023/06/17 04:54:50;;;;;;;;;;;;;;;16.49;100.00;98478.33;135818;1278;22497;-67
2023/06/17 04:57:53;;;;;;;;;;;;;;;16.44;100.00;98482.48;135745;1278;22539;-67
2023/06/17 05:00:55;;;;;;;;;;;;;;;16.41;100.00;98483.94;135435;1278;22519;-68
2023/06/17 05:03:58;;;;;;;;;;;;;;;16.34;100.00;98480.75;135655;1278;22530;-68
2023/06/17 05:07:00;;;;;;;;;;;;;;;16.38;100.00;98487.67;135758;1278;22515;-65
2023/06/17 05:10:03;;;;;;;;;;;;;;;16.54;100.00;98493.60;135726;1278;22578;-71
2023/06/17 05:13:05;;;;;;;;;;;;;;;16.46;100.00;98496.63;135778;1278;22531;-71
2023/06/17 05:16:07;;;;;;;;;;;;;;;16.42;100.00;98501.58;131709;1278;5328788;-68
2023/06/17 05:19:10;;;;;;;;;;;;;;;16.40;100.00;98500.85;135738;1278;22521;-67
2023/06/17 05:22:12;;;;;;;;;;;;;;;16.23;100.00;98501.16;135773;1278;24236;-70
2023/06/17 05:25:15;;;;;;;;;;;;;;;16.07;100.00;98501.64;135771;1278;22834;-71
2023/06/17 05:28:18;;;;;;;;;;;;;;;15.97;100.00;98496.34;135750;1255;24193;-69
2023/06/17 05:31:20;;;;;;;;;;;;;;;15.92;100.00;98498.58;135770;1262;22511;-70
2023/06/17 05:34:23;;;;;;;;;;;;;;;15.76;100.00;98507.17;135776;1273;22620;-64
2023/06/17 05:37:25;;;;;;;;;;;;;;;15.64;100.00;98506.08;135754;1278;24044;-64
2023/06/17 05:40:27;;;;;;;;;;;;;;;15.64;100.00;98505.02;135766;1278;22521;-64
2023/06/17 05:43:30;;;;;;;;;;;;;;;15.57;100.00;98508.78;135757;1278;22527;-68
2023/06/17 05:46:32;;;;;;;;;;;;;;;15.46;100.00;98509.57;135769;1278;22521;-70
2023/06/17 05:49:35;;;;;;;;;;;;;;;15.42;100.00;98507.48;135782;1278;22616;-70
2023/06/17 05:52:37;;;;;;;;;;;;;;;15.44;100.00;98507.81;135762;1260;22659;-69
2023/06/17 05:55:39;;;;;;;;;;;;;;;15.46;100.00;98504.51;135791;1278;22519;-67
2023/06/17 05:58:42;;;;;;;;;;;;;;;15.51;100.00;98505.61;135766;1278;22528;-69
2023/06/17 06:01:44;;;;;;;;;;;;;;;15.67;100.00;98505.96;135789;1278;22522;-69
2023/06/17 06:04:47;;;;;;;;;;;;;;;15.71;100.00;98508.84;135747;1278;22505;-68
2023/06/17 06:07:50;;;;;;;;;;;;;;;15.86;100.00;98507.69;135758;1278;22504;-70
2023/06/17 06:10:52;;;;;;;;;;;;;;;16.03;100.00;98506.79;135748;1278;22519;-71
2023/06/17 06:13:54;;;;;;;;;;;;;;;16.24;100.00;98505.78;135757;1278;22513;-69
2023/06/17 06:16:57;;;;;;;;;;;;;;;16.26;100.00;98505.65;135765;1260;22598;-69
2023/06/17 06:19:59;;;;;;;;;;;;;;;16.20;100.00;98505.59;135782;1278;22529;-69
2023/06/17 06:23:02;;;;;;;;;;;;;;;16.23;100.00;98508.71;135761;1278;22589;-72
2023/06/17 06:26:04;;;;;;;;;;;;;;;16.20;100.00;98515.31;135797;1278;22512;-73
2023/06/17 06:29:08;;;;;;;;;;;;;;;16.26;100.00;98525.52;135743;1278;22617;-74
2023/06/17 06:32:10;;;;;;;;;;;;;;;16.32;100.00;98525.16;135742;1278;22698;-67
2023/06/17 06:35:13;;;;;;;;;;;;;;;16.58;100.00;98517.40;135777;1260;22806;-70
2023/06/17 06:38:15;;;;;;;;;;;;;;;16.94;100.00;98511.67;135785;1278;22525;-74
2023/06/17 06:41:17;;;;;;;;;;;;;;;17.47;100.00;98514.71;135759;1278;22518;-72
2023/06/17 06:44:20;;;;;;;;;;;;;;;17.80;100.00;98508.59;135787;1278;25341;-65
2023/06/17 06:47:22;;;;;;;;;;;;;;;18.13;100.00;98506.84;135735;1278;22919;-66
2023/06/17 06:50:25;;;;;;;;;;;;;;;18.46;100.00;98510.23;135780;1278;22519;-71
2023/06/17 06:53:27;;;;;;;;;;;;;;;18.81;100.00;98511.48;135769;1278;22503;-68
2023/06/17 06:56:30;;;;;;;;;;;;;;;19.21;100.00;98508.22;135794;1278;22539;-69
2023/06/17 06:59:32;;;;;;;;;;;;;;;19.54;100.00;98507.70;135799;1278;23750;-65
2023/06/17 07:02:35;;;;;;;;;;;;;;;19.90;100.00;98500.83;135778;1278;24365;-72
2023/06/17 07:05:37;;;;;;;;;;;;;;;20.31;100.00;98497.17;135782;1278;22509;-65
2023/06/17 07:08:39;;;;;;;;;;;;;;;20.66;100.00;98498.05;135768;1278;22519;-71
2023/06/17 07:11:42;;;;;;;;;;;;;;;20.88;100.00;98497.91;135728;1278;22552;-65
2023/06/17 07:14:44;;;;;;;;;;;;;;;20.91;100.00;98502.49;135764;1278;22512;-70
2023/06/17 07:17:47;;;;;;;;;;;;;;;20.88;100.00;98502.86;135807;1278;22536;-70
2023/06/17 07:20:49;;;;;;;;;;;;;;;20.83;100.00;98501.64;135795;1278;25454;-65
2023/06/17 07:23:52;;;;;;;;;;;;;;;20.90;100.00;98499.96;135771;1278;22532;-66
2023/06/17 07:26:54;;;;;;;;;;;;;;;20.95;100.00;98498.83;135764;1278;24368;-67
2023/06/17 07:29:56;;;;;;;;;;;;;;;21.20;100.00;98497.52;135773;1278;22539;-72
2023/06/17 07:32:59;;;;;;;;;;;;;;;21.38;98.44;98500.05;135777;1278;22733;-69
2023/06/17 07:36:01;;;;;;;;;;;;;;;21.26;100.00;98506.23;135742;1278;22503;-70
2023/06/17 07:39:05;;;;;;;;;;;;;;;21.51;100.00;98503.77;135758;1278;22508;-69
2023/06/17 07:42:07;;;;;;;;;;;;;;;21.89;100.00;98500.06;135779;1278;22523;-74
2023/06/17 07:45:10;;;;;;;;;;;;;;;22.24;100.00;98496.34;135632;1278;22513;-71
2023/06/17 07:48:12;;;;;;;;;;;;;;;22.59;97.00;98493.31;135568;1254;23506;-70
2023/06/17 07:51:15;;;;;;;;;;;;;;;22.71;91.42;98496.50;135465;1278;22529;-70
2023/06/17 07:54:17;;;;;;;;;;;;;;;22.79;88.36;98498.46;135697;1278;22559;-73
2023/06/17 07:57:20;;;;;;;;;;;;;;;22.52;82.15;98503.95;135805;1278;22504;-66
2023/06/17 08:00:22;;;;;;;;;;;;;;;22.30;84.45;98503.63;135772;1278;22683;-68
2023/06/17 08:03:25;;;;;;;;;;;;;;;22.42;84.42;98499.79;135617;1278;25462;-70
2023/06/17 08:06:28;;;;;;;;;;;;;;;22.60;85.13;98495.58;135524;1278;22493;-71
2023/06/17 08:09:31;;;;;;;;;;;;;;;22.75;81.66;98493.79;135659;1260;22562;-68
2023/06/17 08:12:33;;;;;;;;;;;;;;;23.02;82.14;98493.11;135740;1278;23718;-70
2023/06/17 08:15:36;;;;;;;;;;;;;;;23.28;79.85;98492.46;135689;1278;22583;-67
2023/06/17 08:18:38;;;;;;;;;;;;;;;23.25;73.86;98490.31;135796;1278;22883;-68
2023/06/17 08:21:41;;;;;;;;;;;;;;;23.20;74.12;98493.73;135774;1278;22569;-69
2023/06/17 08:24:44;;;;;;;;;;;;;;;23.30;74.87;98491.73;135797;1278;25310;-67
2023/06/17 08:27:47;;;;;;;;;;;;;;;23.46;74.85;98495.06;135781;1278;22553;-72
2023/06/17 08:30:51;;;;;;;;;;;;;;;23.52;72.98;98489.41;135783;1259;22521;-66
2023/06/17 08:33:53;;;;;;;;;;;;;;;23.73;72.28;98487.97;135770;1278;22532;-64
2023/06/17 08:36:56;;;;;;;;;;;;;;;23.80;69.15;98485.80;135779;1278;22507;-72
2023/06/17 08:39:58;;;;;;;;;;;;;;;24.03;73.77;98480.36;135773;1259;22616;-71
2023/06/17 08:43:01;;;;;;;;;;;;;;;24.53;70.45;98480.27;135739;1278;22540;-69
2023/06/17 08:46:03;;;;;;;;;;;;;;;24.86;68.77;98481.36;135685;1278;22509;-64
2023/06/17 08:49:06;;;;;;;;;;;;;;;25.08;62.87;98489.74;135748;1259;22501;-65
2023/06/17 08:52:11;;;;;;;;;;;;;;;25.02;62.25;98489.20;135756;1278;22497;-66
2023/06/17 08:55:13;;;;;;;;;;;;;;;25.18;61.56;98489.86;135768;1278;22553;-68
2023/06/17 08:58:16;;;;;;;;;;;;;;;25.44;62.50;98489.52;135773;1278;22508;-69
2023/06/17 09:01:18;;;;;;;;;;;;;;;25.76;62.95;98486.24;135713;1278;25392;-67
2023/06/17 09:04:20;;;;;;;;;;;;;;;25.84;62.78;98484.87;135685;1278;22531;-66
2023/06/17 09:07:23;;;;;;;;;;;;;;;25.41;60.28;98493.88;135732;1278;25597;-65
2023/06/17 09:10:25;;;;;;;;;;;;;;;24.83;60.32;98486.29;135768;1278;22514;-66
2023/06/17 09:13:28;;;;;;;;;;;;;;;24.87;62.93;98486.98;135762;1278;22500;-72
2023/06/17 09:16:30;;;;;;;;;;;;;;;24.89;62.92;98483.69;135754;1278;22515;-67
2023/06/17 09:19:33;;;;;;;;;;;;;;;24.58;58.39;98486.42;135639;1278;22660;-71
2023/06/17 09:22:35;;;;;;;;;;;;;;;24.14;58.80;98482.66;135719;1278;22554;-69
2023/06/17 09:25:38;;;;;;;;;;;;;;;24.38;59.09;98477.05;135776;1278;22500;-70
2023/06/17 09:28:40;;;;;;;;;;;;;;;25.03;59.03;98480.63;135806;1278;22619;-66
2023/06/17 09:31:42;;;;;;;;;;;;;;;25.41;59.06;98481.23;135764;1278;22526;-67
2023/06/17 09:34:45;;;;;;;;;;;;;;;25.32;58.02;98480.77;135748;1278;24266;-65
2023/06/17 09:37:47;;;;;;;;;;;;;;;24.88;58.17;98484.71;135762;1278;22525;-58
2023/06/17 09:40:50;;;;;;;;;;;;;;;24.46;59.01;98487.39;135609;1278;23057;-58
2023/06/17 09:43:52;;;;;;;;;;;;;;;24.16;59.60;98484.18;135515;1278;24196;-60
2023/06/17 09:46:58;;;;;;;;;;;;;;;23.90;60.09;98484.11;135603;1272;22528;-59
2023/06/17 09:50:00;;;;;;;;;;;;;;;23.83;60.53;98479.08;135724;1273;22517;-59
2023/06/17 09:53:05;;;;;;;;;;;;;;;23.79;60.63;98478.95;135667;1278;22503;-69
2023/06/17 09:56:10;;;;;;;;;;;;;;;23.79;59.89;98479.55;135713;1278;22517;-58
2023/06/17 09:59:13;;;;;;;;;;;;;;;23.69;61.23;98480.24;135724;1275;22500;-60
2023/06/17 10:02:16;;;;;;;;;;;;;;;23.68;60.64;98484.25;136415;1278;22486;-58
2023/06/17 10:05:20;;;;;;;;;;;;;;;23.94;61.32;98480.55;136161;1278;22501;-59
2023/06/17 10:08:23;;;;;;;;;;;;;;;23.94;60.36;98476.10;135838;1259;22624;-61
2023/06/17 10:11:25;;;;;;;;;;;;;;;23.80;60.70;98472.85;135786;1277;22515;-64
2023/06/17 10:14:28;;;;;;;;;;;;;;;23.76;61.26;98474.70;135613;1263;22511;-58
2023/06/17 10:17:31;;;;;;;;;;;;;;;23.83;62.07;98474.95;135604;1278;22715;-59
2023/06/17 10:20:33;;;;;;;;;;;;;;;23.88;60.91;98475.04;135771;1278;25357;-58
2023/06/17 10:23:36;;;;;;;;;;;;;;;23.88;62.30;98478.32;135638;1256;23827;-61
2023/06/17 10:26:39;;;;;;;;;;;;;;;24.05;61.00;98479.48;135782;1278;22511;-59
2023/06/17 10:29:42;;;;;;;;;;;;;;;24.38;61.71;98476.12;135711;1278;22620;-59
2023/06/17 10:32:44;;;;;;;;;;;;;;;24.58;60.31;98474.67;135744;1278;22511;-64
2023/06/17 10:35:47;;;;;;;;;;;;;;;24.92;58.79;98473.85;135746;1278;24294;-62
2023/06/17 10:38:50;;;;;;;;;;;;;;;25.36;57.00;98472.09;135716;1278;24223;-62
2023/06/17 10:41:52;;;;;;;;;;;;;;;25.67;57.21;98471.86;135816;1278;22508;-62
2023/06/17 10:44:56;;;;;;;;;;;;;;;25.70;54.71;98471.33;135646;1278;22506;-59
2023/06/17 10:47:59;;;;;;;;;;;;;;;25.48;56.55;98470.95;135706;1278;22508;-63
2023/06/17 10:51:02;;;;;;;;;;;;;;;25.26;56.57;98472.61;135744;1254;22513;-62
2023/06/17 10:54:04;;;;;;;;;;;;;;;25.08;57.15;98469.55;135779;1259;24243;-59
2023/06/17 10:57:07;;;;;;;;;;;;;;;25.00;56.70;98468.92;135772;1277;22517;-58
2023/06/17 11:00:10;;;;;;;;;;;;;;;24.95;55.24;98467.89;135762;1278;22500;-58
2023/06/17 11:03:12;;;;;;;;;;;;;;;25.08;55.84;98470.46;135771;1278;22613;-69
2023/06/17 11:06:15;;;;;;;;;;;;;;;25.18;55.26;98470.54;135728;1271;22500;-65
2023/06/17 11:09:18;;;;;;;;;;;;;;;25.83;55.01;98466.30;135745;1278;22519;-66
2023/06/17 11:12:21;;;;;;;;;;;;;;;26.67;51.64;98463.05;135773;1278;25310;-65
2023/06/17 11:15:24;;;;;;;;;;;;;;;26.60;51.90;98462.49;135733;1277;22556;-64
2023/06/17 11:18:27;;;;;;;;;;;;;;;26.56;51.87;98462.45;135694;1259;22524;-64
2023/06/17 11:21:30;;;;;;;;;;;;;;;26.94;52.39;98461.07;135688;1278;22536;-61
2023/06/17 11:24:32;;;;;;;;;;;;;;;26.91;50.53;98463.64;135732;1259;22539;-63
2023/06/17 11:27:35;;;;;;;;;;;;;;;26.58;49.83;98466.72;135748;1278;22660;-59
2023/06/17 11:30:37;;;;;;;;;;;;;;;26.39;50.40;98467.22;135789;1278;22503;-66
2023/06/17 11:33:41;;;;;;;;;;;;;;;25.87;49.62;98474.52;135759;1277;22539;-63
2023/06/17 11:36:44;;;;;;;;;;;;;;;25.71;50.08;98473.49;135770;1278;22539;-61
2023/06/17 11:39:46;;;;;;;;;;;;;;;26.34;51.34;98467.13;135769;1278;22511;-63
2023/06/17 11:42:49;;;;;;;;;;;;;;;26.85;49.36;98460.33;135814;1278;22584;-63
2023/06/17 11:45:51;;;;;;;;;;;;;;;26.49;49.28;98462.25;135776;1278;22522;-66
2023/06/17 11:48:54;;;;;;;;;;;;;;;26.18;50.21;98457.67;135769;1277;25366;-63
2023/06/17 11:51:56;;;;;;;;;;;;;;;26.01;49.28;98463.15;135732;1259;22512;-59
2023/06/17 11:54:58;;;;;;;;;;;;;;;25.91;48.14;98461.88;135754;1274;26523;-67
2023/06/17 11:58:01;;;;;;;;;;;;;;;26.40;48.84;98457.79;135788;1278;26454;-63
2023/06/17 12:01:04;;;;;;;;;;;;;;;26.58;45.40;98455.30;135807;1259;22532;-59
2023/06/17 12:04:06;;;;;;;;;;;;;;;26.18;45.01;98456.84;135757;1278;22521;-69
2023/06/17 12:07:09;;;;;;;;;;;;;;;26.03;47.22;98455.02;135796;1277;22519;-61
2023/06/17 12:10:11;;;;;;;;;;;;;;;26.03;45.99;98450.15;135779;1259;22514;-60
2023/06/17 12:13:15;;;;;;;;;;;;;;;26.06;46.75;98448.72;135639;1256;24379;-63
2023/06/17 12:16:18;;;;;;;;;;;;;;;26.16;46.61;98450.98;135774;1278;23718;-68
2023/06/17 12:19:21;;;;;;;;;;;;;;;26.03;46.13;98455.69;135783;1259;22514;-66
2023/06/17 12:22:24;;;;;;;;;;;;;;;26.05;45.72;98446.81;136134;1278;22530;-59
2023/06/17 12:25:27;;;;;;;;;;;;;;;26.33;47.39;98444.23;135725;1278;22540;-59
2023/06/17 12:28:30;;;;;;;;;;;;;;;26.64;45.13;98446.20;135741;1278;22595;-59
2023/06/17 12:31:34;;;;;;;;;;;;;;;27.06;45.63;98439.04;135800;1278;22519;-63
2023/06/17 12:34:37;;;;;;;;;;;;;;;27.49;43.41;98437.42;135767;1259;22500;-59
2023/06/17 12:37:39;;;;;;;;;;;;;;;27.39;41.82;98436.33;135707;1278;22504;-59
2023/06/17 12:40:42;;;;;;;;;;;;;;;27.34;41.93;98434.05;135789;1259;22817;-62
2023/06/17 12:43:44;;;;;;;;;;;;;;;27.93;41.09;98428.45;135752;1278;22660;-58
2023/06/17 12:46:47;;;;;;;;;;;;;;;28.69;40.71;98424.02;135742;1278;22616;-61
2023/06/17 12:49:50;;;;;;;;;;;;;;;28.82;39.80;98426.77;135766;1278;22530;-63
2023/06/17 12:52:54;;;;;;;;;;;;;;;28.68;38.58;98435.24;135771;1278;24233;-59
2023/06/17 12:55:56;;;;;;;;;;;;;;;28.53;37.39;98433.09;135782;1277;24369;-61
2023/06/17 12:59:00;;;;;;;;;;;;;;;28.34;39.06;98435.09;135787;1259;22524;-60
2023/06/17 13:02:03;;;;;;;;;;;;;;;28.19;38.86;98431.34;135779;1259;23302;-67
2023/06/17 13:05:07;;;;;;;;;;;;;;;28.15;39.39;98431.54;135754;1278;22503;-65
2023/06/17 13:08:09;;;;;;;;;;;;;;;27.94;39.45;98430.85;135668;1278;22734;-58
2023/06/17 13:11:12;;;;;;;;;;;;;;;27.64;41.08;98430.27;135748;1278;22534;-68
2023/06/17 13:14:15;;;;;;;;;;;;;;;27.56;40.53;98432.77;135741;1277;23938;-59
2023/06/17 13:17:17;;;;;;;;;;;;;;;27.68;40.39;98422.59;135724;1259;22512;-59
2023/06/17 13:20:20;;;;;;;;;;;;;;;27.98;40.58;98418.39;135660;1267;22526;-59
2023/06/17 13:23:23;;;;;;;;;;;;;;;28.18;39.43;98416.21;135642;1278;22537;-58
2023/06/17 13:26:25;;;;;;;;;;;;;;;28.05;38.80;98416.34;135730;1278;23892;-64
2023/06/17 13:29:28;;;;;;;;;;;;;;;28.10;38.10;98424.64;135780;1278;25248;-59
2023/06/17 13:32:30;;;;;;;;;;;;;;;28.13;37.48;98426.57;135663;1278;25386;-63
2023/06/17 13:35:32;;;;;;;;;;;;;;;27.69;38.34;98430.45;135765;1278;22539;-59
2023/06/17 13:38:35;;;;;;;;;;;;;;;27.15;39.18;98428.45;135681;1278;22538;-67
2023/06/17 13:41:37;;;;;;;;;;;;;;;26.84;40.45;98426.48;135571;1278;22577;-58
2023/06/17 13:44:40;;;;;;;;;;;;;;;26.62;41.27;98428.09;135760;1278;25448;-62
2023/06/17 13:47:43;;;;;;;;;;;;;;;26.66;41.60;98431.31;135721;1259;22533;-65
2023/06/17 13:50:45;;;;;;;;;;;;;;;26.49;40.28;98430.59;135790;1256;22520;-60
2023/06/17 13:53:48;;;;;;;;;;;;;;;26.43;42.63;98423.02;135654;1277;24207;-60
2023/06/17 13:56:50;;;;;;;;;;;;;;;26.47;42.37;98430.22;135770;1274;22520;-59
2023/06/17 13:59:53;;;;;;;;;;;;;;;26.41;41.26;98427.24;135753;1278;22518;-61
2023/06/17 14:02:55;;;;;;;;;;;;;;;26.36;41.93;98423.84;135758;1278;22523;-61
2023/06/17 14:05:58;;;;;;;;;;;;;;;26.31;41.61;98424.62;135748;1278;24255;-68
2023/06/17 14:09:04;;;;;;;;;;;;;;;26.37;42.35;98419.50;135683;1278;23835;-59
2023/06/17 14:12:06;;;;;;;;;;;;;;;26.35;42.14;98424.46;135777;1278;22527;-62
2023/06/17 14:15:09;;;;;;;;;;;;;;;26.42;42.74;98427.08;135790;1258;24194;-60
2023/06/17 14:18:12;;;;;;;;;;;;;;;26.42;43.10;98426.17;135798;1278;22545;-65
2023/06/17 14:21:22;;;;;;;;;;;;;;;26.28;42.72;98428.39;135719;1278;22504;-65
2023/06/17 14:24:25;;;;;;;;;;;;;;;26.24;43.74;98428.75;135702;1278;22520;-65
2023/06/17 14:27:28;;;;;;;;;;;;;;;26.08;43.96;98430.00;135617;1278;22527;-62
2023/06/17 14:30:30;;;;;;;;;;;;;;;25.98;43.18;98430.90;135622;1259;22616;-61
2023/06/17 14:33:33;;;;;;;;;;;;;;;25.97;43.05;98427.81;135748;1278;22508;-59
2023/06/17 14:36:36;;;;;;;;;;;;;;;26.06;44.12;98424.05;135778;1278;22504;-69
2023/06/17 14:39:38;;;;;;;;;;;;;;;26.17;43.08;98428.41;135726;1278;22613;-67
2023/06/17 14:42:41;;;;;;;;;;;;;;;26.38;43.14;98424.09;135739;1259;22613;-62
2023/06/17 14:45:43;;;;;;;;;;;;;;;26.68;44.05;98424.20;135745;1278;22613;-61
2023/06/17 14:48:46;;;;;;;;;;;;;;;26.59;42.29;98431.22;135774;1278;22500;-59
2023/06/17 14:51:50;;;;;;;;;;;;;;;26.47;43.32;98422.69;135776;1259;22497;-70
2023/06/17 14:54:53;;;;;;;;;;;;;;;26.46;44.00;98420.83;135778;1259;23140;-60
2023/06/17 14:57:55;;;;;;;;;;;;;;;26.27;43.77;98423.23;135742;1278;23889;-62
2023/06/17 15:00:58;;;;;;;;;;;;;;;25.95;44.14;98423.84;135734;1278;22510;-65
2023/06/17 15:04:00;;;;;;;;;;;;;;;25.69;45.01;98421.84;135758;1259;22530;-68
2023/06/17 15:07:03;;;;;;;;;;;;;;;25.57;44.91;98418.38;135782;1278;22609;-70
2023/06/17 15:10:05;;;;;;;;;;;;;;;25.41;44.53;98416.80;135764;1278;22613;-64
2023/06/17 15:13:08;;;;;;;;;;;;;;;25.41;45.40;98422.38;135740;1259;22551;-68
2023/06/17 15:16:10;;;;;;;;;;;;;;;25.45;45.20;98421.77;135755;1278;22511;-69
2023/06/17 15:19:13;;;;;;;;;;;;;;;25.51;46.15;98422.31;135651;1278;22765;-63
2023/06/17 15:22:15;;;;;;;;;;;;;;;25.57;45.43;98425.17;135740;1278;22665;-62
2023/06/17 15:25:18;;;;;;;;;;;;;;;25.53;46.16;98427.85;135724;1278;22518;-67
2023/06/17 15:28:20;;;;;;;;;;;;;;;25.80;45.76;98424.27;135752;1278;22487;-64
2023/06/17 15:31:23;;;;;;;;;;;;;;;27.32;42.80;98422.06;135755;1278;24356;-67